Memorial Field
KHOT : now visible

Airfield :











YOU CAN JOIN US ON...

 
LOGIN :

Register | Disclaimer

   EN    FR    IT 

 









Legend :    VFR   Marginal VFR   IFR   Intensive IFR   Very Intensive IFR
Visi :
Ceiling :
>= 8 km
>= 3000ft
5 to 8 km
1000 to 3000 ft
1500m to 5 km
500 to 1000 ft
800 to 1500m
200 to 500 ft
< 800m
< 200 ft
Symbols :   Thunderstorms  Fog  Heavy snow  Heavy precipitations  Wind > 20 kt






- Airport Elevation : 540 ft
- IATA code : HOT


KHOT - Memorial Field

CURRENT METAR :
  • 260153Z AUTO 11003KT 10SM OVC075 11/02 A3008 RMK AO2 SLP187 T01060017

EXPIRED METARs :
  • 260053Z AUTO 10003KT 10SM OVC080 11/02 A3008 RMK AO2 SLP187 T01060017
  • 252353Z AUTO 14003KT 10SM OVC100 11/01 A3008 RMK AO2 SLP186 T01110011 10144 20100 50000

TAF KHOT
Valid from the 26 at 00:00 until the 27 at 00:00 UTC


252320Z 2600/2624 VRB04KT P6SM VCSH SCT025 BKN100
TEMPO 2602/2606 4SM -SHRA BR OVC025
FM260600 VRB03KT 6SM -SHRA BR OVC025
FM261200 VRB03KT P6SM VCSH BKN008 OVC015
FM262000 20005KT P6SM BKN015 OVC025



MET'MAP, your aeronautical weather chart ! - Copyright ORBIFLY December 2007 - Disclaimer

ORBIFLY MET'MAP TEAM :

Programming & Development : Alexandra Zaïnal
Concept & original design : Baudouin d'Aumeries
Assistance for programming : Marc-Olivier Méhu
Technical & hardware support : Manuel Goepfert

Contact : metmap@orbifly.com




SOURCES & CREDITS :

   NOAA       Earth
Advisory